Accueil
METAR-TAF:

METAR-TAF

Aéroports :

Cheboygan County Airport

Cheboygan, Michigan, États-Unis

latitude: 45-39-13N, longitude: 084-31-09W, altitude: 195 m

Observation

Le bulletin a été fait il y a 16 minutes, à 09:15 UTC
Vent calme
Température 12°C
Humidité 100%
Pression 1009 hPa
Visibilité: 6.4 km
Nuages fragmentés à une hauteur de 500 ft
Ciel couvert à une hauteur de 800 ft
pluie

METAR: KSLH 210915Z AUTO 00000KT 4SM RA BKN005 OVC008 12/12 A2980 RMK AO2

Heure: 05:31 (09:31 UTC)


TAF: absent

Observations et prévisions météorologiques de plus de 4000 aéroports (messages METAR et TAF).

Les stations disponibles sont représentées par des disques jaunes et rouges sur la carte.

Passer la souris dessus pour voir le nom de la station.

Cliquer dessus pour voir les observations et prévisions météorologiques.

Pour changer de carte: cliquez sur les boutons verts avec une croix noire pour zoomer, sur le bouton vert avec un tiret pour effectuer un zoom arrière, ou sur les flèches vertes pour les cartes adjacentes.


METAR-TAF: